sensor_id;sensor_type;location;lat;lon;timestamp;P1;durP1;ratioP1;P2;durP2;ratioP2
7647;SDS011;3866;48.020;11.720;2022-11-03T00:01:11;3.97;;;2.63;;
7647;SDS011;3866;48.020;11.720;2022-11-03T00:03:40;5.30;;;2.93;;
7647;SDS011;3866;48.020;11.720;2022-11-03T00:06:07;4.40;;;2.50;;
7647;SDS011;3866;48.020;11.720;2022-11-03T00:08:34;4.00;;;2.87;;
7647;SDS011;3866;48.020;11.720;2022-11-03T00:11:04;5.03;;;3.17;;
7647;SDS011;3866;48.020;11.720;2022-11-03T00:13:33;6.70;;;2.80;;
7647;SDS011;3866;48.020;11.720;2022-11-03T00:16:00;5.00;;;2.90;;
7647;SDS011;3866;48.020;11.720;2022-11-03T00:18:28;7.20;;;3.40;;
7647;SDS011;3866;48.020;11.720;2022-11-03T00:20:59;7.87;;;2.97;;
7647;SDS011;3866;48.020;11.720;2022-11-03T00:23:28;4.83;;;2.87;;
7647;SDS011;3866;48.020;11.720;2022-11-03T00:26:06;6.87;;;3.60;;
7647;SDS011;3866;48.020;11.720;2022-11-03T00:28:35;7.67;;;4.57;;
7647;SDS011;3866;48.020;11.720;2022-11-03T00:31:04;13.00;;;6.80;;
7647;SDS011;3866;48.020;11.720;2022-11-03T00:33:33;10.13;;;5.20;;
7647;SDS011;3866;48.020;11.720;2022-11-03T00:36:01;6.93;;;3.70;;
7647;SDS011;3866;48.020;11.720;2022-11-03T00:38:29;4.73;;;2.87;;
7647;SDS011;3866;48.020;11.720;2022-11-03T00:40:58;4.70;;;2.70;;
7647;SDS011;3866;48.020;11.720;2022-11-03T00:43:26;4.33;;;2.43;;
7647;SDS011;3866;48.020;11.720;2022-11-03T00:45:55;5.17;;;2.60;;
7647;SDS011;3866;48.020;11.720;2022-11-03T00:48:22;5.20;;;2.80;;
7647;SDS011;3866;48.020;11.720;2022-11-03T00:51:06;5.37;;;2.73;;
7647;SDS011;3866;48.020;11.720;2022-11-03T00:53:36;7.10;;;3.53;;
7647;SDS011;3866;48.020;11.720;2022-11-03T00:56:08;4.80;;;2.83;;
7647;SDS011;3866;48.020;11.720;2022-11-03T00:58:40;5.00;;;2.77;;
7647;SDS011;3866;48.020;11.720;2022-11-03T01:01:09;3.80;;;3.17;;
7647;SDS011;3866;48.020;11.720;2022-11-03T01:03:38;4.73;;;2.57;;
7647;SDS011;3866;48.020;11.720;2022-11-03T01:06:08;2.97;;;2.13;;
7647;SDS011;3866;48.020;11.720;2022-11-03T01:08:54;3.17;;;2.37;;
7647;SDS011;3866;48.020;11.720;2022-11-03T01:11:22;5.43;;;2.20;;
7647;SDS011;3866;48.020;11.720;2022-11-03T01:14:07;5.33;;;2.57;;
7647;SDS011;3866;48.020;11.720;2022-11-03T01:16:34;4.37;;;2.33;;
7647;SDS011;3866;48.020;11.720;2022-11-03T01:19:01;2.67;;;2.00;;
7647;SDS011;3866;48.020;11.720;2022-11-03T01:21:30;2.67;;;2.20;;
7647;SDS011;3866;48.020;11.720;2022-11-03T01:23:58;6.13;;;1.77;;
7647;SDS011;3866;48.020;11.720;2022-11-03T01:26:26;3.30;;;1.87;;
7647;SDS011;3866;48.020;11.720;2022-11-03T01:28:53;3.67;;;2.07;;
7647;SDS011;3866;48.020;11.720;2022-11-03T01:31:20;7.00;;;2.80;;
7647;SDS011;3866;48.020;11.720;2022-11-03T01:33:49;3.37;;;2.63;;
7647;SDS011;3866;48.020;11.720;2022-11-03T01:36:17;4.30;;;2.47;;
7647;SDS011;3866;48.020;11.720;2022-11-03T01:38:46;3.50;;;2.37;;
7647;SDS011;3866;48.020;11.720;2022-11-03T01:41:13;6.03;;;2.43;;
7647;SDS011;3866;48.020;11.720;2022-11-03T01:43:42;6.33;;;2.67;;
7647;SDS011;3866;48.020;11.720;2022-11-03T01:46:12;4.07;;;2.73;;
7647;SDS011;3866;48.020;11.720;2022-11-03T01:48:44;6.27;;;2.67;;
7647;SDS011;3866;48.020;11.720;2022-11-03T01:51:17;6.03;;;3.60;;
7647;SDS011;3866;48.020;11.720;2022-11-03T01:53:50;6.00;;;3.60;;
7647;SDS011;3866;48.020;11.720;2022-11-03T01:56:19;10.70;;;3.77;;
7647;SDS011;3866;48.020;11.720;2022-11-03T01:58:49;7.17;;;3.43;;
7647;SDS011;3866;48.020;11.720;2022-11-03T02:01:19;4.17;;;2.73;;
7647;SDS011;3866;48.020;11.720;2022-11-03T02:03:48;3.40;;;2.80;;
7647;SDS011;3866;48.020;11.720;2022-11-03T02:06:18;5.33;;;2.80;;
7647;SDS011;3866;48.020;11.720;2022-11-03T02:08:48;4.40;;;3.20;;
7647;SDS011;3866;48.020;11.720;2022-11-03T02:11:21;5.03;;;3.30;;
7647;SDS011;3866;48.020;11.720;2022-11-03T02:14:09;4.07;;;3.50;;
7647;SDS011;3866;48.020;11.720;2022-11-03T02:16:36;5.63;;;3.57;;
7647;SDS011;3866;48.020;11.720;2022-11-03T02:19:05;8.07;;;3.93;;
7647;SDS011;3866;48.020;11.720;2022-11-03T02:21:46;5.27;;;3.77;;
7647;SDS011;3866;48.020;11.720;2022-11-03T02:24:24;6.73;;;4.00;;
7647;SDS011;3866;48.020;11.720;2022-11-03T02:26:56;6.73;;;3.87;;
7647;SDS011;3866;48.020;11.720;2022-11-03T02:29:23;4.93;;;3.10;;
7647;SDS011;3866;48.020;11.720;2022-11-03T02:31:53;6.00;;;3.80;;
7647;SDS011;3866;48.020;11.720;2022-11-03T02:34:25;4.87;;;3.60;;
7647;SDS011;3866;48.020;11.720;2022-11-03T02:36:58;4.10;;;3.10;;
7647;SDS011;3866;48.020;11.720;2022-11-03T02:39:33;6.27;;;3.20;;
7647;SDS011;3866;48.020;11.720;2022-11-03T02:42:05;4.83;;;3.47;;
7647;SDS011;3866;48.020;11.720;2022-11-03T02:44:34;6.87;;;3.37;;
7647;SDS011;3866;48.020;11.720;2022-11-03T02:47:06;7.20;;;3.73;;
7647;SDS011;3866;48.020;11.720;2022-11-03T02:49:36;6.23;;;3.43;;
7647;SDS011;3866;48.020;11.720;2022-11-03T02:52:04;9.23;;;4.60;;
7647;SDS011;3866;48.020;11.720;2022-11-03T02:54:52;7.20;;;3.90;;
7647;SDS011;3866;48.020;11.720;2022-11-03T02:57:22;10.90;;;4.57;;
7647;SDS011;3866;48.020;11.720;2022-11-03T02:59:55;7.47;;;4.00;;
7647;SDS011;3866;48.020;11.720;2022-11-03T03:02:28;13.03;;;4.70;;
7647;SDS011;3866;48.020;11.720;2022-11-03T03:05:01;9.20;;;5.07;;
7647;SDS011;3866;48.020;11.720;2022-11-03T03:07:31;9.33;;;6.23;;
7647;SDS011;3866;48.020;11.720;2022-11-03T03:10:02;8.60;;;6.00;;
7647;SDS011;3866;48.020;11.720;2022-11-03T03:12:34;14.53;;;6.67;;
7647;SDS011;3866;48.020;11.720;2022-11-03T03:15:04;14.73;;;7.53;;
7647;SDS011;3866;48.020;11.720;2022-11-03T03:17:34;11.67;;;7.07;;
7647;SDS011;3866;48.020;11.720;2022-11-03T03:20:08;12.20;;;6.43;;
7647;SDS011;3866;48.020;11.720;2022-11-03T03:22:45;12.13;;;5.90;;
7647;SDS011;3866;48.020;11.720;2022-11-03T03:25:17;9.33;;;4.80;;
7647;SDS011;3866;48.020;11.720;2022-11-03T03:27:49;8.00;;;4.23;;
7647;SDS011;3866;48.020;11.720;2022-11-03T03:30:19;7.37;;;4.30;;
7647;SDS011;3866;48.020;11.720;2022-11-03T03:32:47;9.60;;;4.53;;
7647;SDS011;3866;48.020;11.720;2022-11-03T03:35:16;11.13;;;4.33;;
7647;SDS011;3866;48.020;11.720;2022-11-03T03:37:47;6.87;;;4.47;;
7647;SDS011;3866;48.020;11.720;2022-11-03T03:40:20;10.30;;;4.77;;
7647;SDS011;3866;48.020;11.720;2022-11-03T03:42:51;10.50;;;5.20;;
7647;SDS011;3866;48.020;11.720;2022-11-03T03:45:19;10.43;;;5.87;;
7647;SDS011;3866;48.020;11.720;2022-11-03T03:47:46;11.33;;;6.40;;
7647;SDS011;3866;48.020;11.720;2022-11-03T03:50:13;11.37;;;6.23;;
7647;SDS011;3866;48.020;11.720;2022-11-03T03:52:42;13.60;;;7.17;;
7647;SDS011;3866;48.020;11.720;2022-11-03T03:55:11;12.40;;;7.40;;
7647;SDS011;3866;48.020;11.720;2022-11-03T03:57:42;12.87;;;7.33;;
7647;SDS011;3866;48.020;11.720;2022-11-03T04:00:13;8.17;;;7.03;;
7647;SDS011;3866;48.020;11.720;2022-11-03T04:02:41;19.07;;;7.97;;
7647;SDS011;3866;48.020;11.720;2022-11-03T04:05:08;23.07;;;9.27;;
7647;SDS011;3866;48.020;11.720;2022-11-03T04:07:35;13.60;;;7.67;;
7647;SDS011;3866;48.020;11.720;2022-11-03T04:10:14;22.43;;;8.93;;
7647;SDS011;3866;48.020;11.720;2022-11-03T04:12:42;26.27;;;9.80;;
7647;SDS011;3866;48.020;11.720;2022-11-03T04:15:29;11.90;;;8.27;;
7647;SDS011;3866;48.020;11.720;2022-11-03T04:18:15;17.63;;;8.37;;
7647;SDS011;3866;48.020;11.720;2022-11-03T04:21:00;31.13;;;10.47;;
7647;SDS011;3866;48.020;11.720;2022-11-03T04:23:44;33.47;;;11.70;;
7647;SDS011;3866;48.020;11.720;2022-11-03T04:26:11;32.97;;;10.73;;
7647;SDS011;3866;48.020;11.720;2022-11-03T04:28:39;30.93;;;12.60;;
7647;SDS011;3866;48.020;11.720;2022-11-03T04:31:10;24.40;;;11.83;;
7647;SDS011;3866;48.020;11.720;2022-11-03T04:33:38;18.10;;;10.20;;
7647;SDS011;3866;48.020;11.720;2022-11-03T04:36:09;18.40;;;10.77;;
7647;SDS011;3866;48.020;11.720;2022-11-03T04:38:39;30.20;;;12.53;;
7647;SDS011;3866;48.020;11.720;2022-11-03T04:41:06;32.13;;;11.80;;
7647;SDS011;3866;48.020;11.720;2022-11-03T04:43:40;23.83;;;11.50;;
7647;SDS011;3866;48.020;11.720;2022-11-03T04:46:09;32.67;;;12.33;;
7647;SDS011;3866;48.020;11.720;2022-11-03T04:48:39;16.77;;;11.20;;
7647;SDS011;3866;48.020;11.720;2022-11-03T04:51:12;20.40;;;11.17;;
7647;SDS011;3866;48.020;11.720;2022-11-03T04:53:45;25.30;;;10.97;;
7647;SDS011;3866;48.020;11.720;2022-11-03T04:56:15;19.10;;;11.67;;
7647;SDS011;3866;48.020;11.720;2022-11-03T04:58:45;15.30;;;10.33;;
7647;SDS011;3866;48.020;11.720;2022-11-03T05:01:16;16.00;;;10.63;;
7647;SDS011;3866;48.020;11.720;2022-11-03T05:03:45;18.83;;;10.67;;
7647;SDS011;3866;48.020;11.720;2022-11-03T05:06:14;12.17;;;9.83;;
7647;SDS011;3866;48.020;11.720;2022-11-03T05:08:44;19.23;;;11.30;;
7647;SDS011;3866;48.020;11.720;2022-11-03T05:11:17;13.30;;;10.57;;
7647;SDS011;3866;48.020;11.720;2022-11-03T05:13:49;16.67;;;10.13;;
7647;SDS011;3866;48.020;11.720;2022-11-03T05:16:18;14.07;;;10.37;;
7647;SDS011;3866;48.020;11.720;2022-11-03T05:18:46;13.43;;;10.43;;
7647;SDS011;3866;48.020;11.720;2022-11-03T05:21:16;17.80;;;10.97;;
7647;SDS011;3866;48.020;11.720;2022-11-03T05:23:45;14.27;;;10.47;;
7647;SDS011;3866;48.020;11.720;2022-11-03T05:26:15;13.30;;;10.33;;
7647;SDS011;3866;48.020;11.720;2022-11-03T05:28:45;17.93;;;10.63;;
7647;SDS011;3866;48.020;11.720;2022-11-03T05:31:23;21.23;;;10.30;;
7647;SDS011;3866;48.020;11.720;2022-11-03T05:33:53;26.30;;;10.93;;
7647;SDS011;3866;48.020;11.720;2022-11-03T05:36:24;18.70;;;10.23;;
7647;SDS011;3866;48.020;11.720;2022-11-03T05:38:53;14.43;;;10.40;;
7647;SDS011;3866;48.020;11.720;2022-11-03T05:41:24;24.87;;;10.83;;
7647;SDS011;3866;48.020;11.720;2022-11-03T05:43:53;25.30;;;11.60;;
7647;SDS011;3866;48.020;11.720;2022-11-03T05:46:26;23.07;;;11.47;;
7647;SDS011;3866;48.020;11.720;2022-11-03T05:48:56;18.23;;;11.20;;
7647;SDS011;3866;48.020;11.720;2022-11-03T05:51:27;14.00;;;10.90;;
7647;SDS011;3866;48.020;11.720;2022-11-03T05:53:58;16.53;;;11.17;;
7647;SDS011;3866;48.020;11.720;2022-11-03T05:56:27;13.90;;;10.77;;
7647;SDS011;3866;48.020;11.720;2022-11-03T05:58:58;14.77;;;9.70;;
7647;SDS011;3866;48.020;11.720;2022-11-03T06:01:29;16.63;;;10.80;;
7647;SDS011;3866;48.020;11.720;2022-11-03T06:03:59;12.10;;;10.10;;
7647;SDS011;3866;48.020;11.720;2022-11-03T06:06:31;15.53;;;9.77;;
7647;SDS011;3866;48.020;11.720;2022-11-03T06:09:01;12.77;;;8.73;;
7647;SDS011;3866;48.020;11.720;2022-11-03T06:11:39;20.70;;;9.67;;
7647;SDS011;3866;48.020;11.720;2022-11-03T06:14:12;21.63;;;10.97;;
7647;SDS011;3866;48.020;11.720;2022-11-03T06:16:45;13.10;;;9.40;;
7647;SDS011;3866;48.020;11.720;2022-11-03T06:19:17;18.87;;;10.17;;
7647;SDS011;3866;48.020;11.720;2022-11-03T06:21:47;13.70;;;9.90;;
7647;SDS011;3866;48.020;11.720;2022-11-03T06:24:15;15.70;;;9.13;;
7647;SDS011;3866;48.020;11.720;2022-11-03T06:26:45;14.20;;;9.57;;
7647;SDS011;3866;48.020;11.720;2022-11-03T06:29:15;12.47;;;10.43;;
7647;SDS011;3866;48.020;11.720;2022-11-03T06:31:49;12.67;;;10.10;;
7647;SDS011;3866;48.020;11.720;2022-11-03T06:37:18;13.13;;;9.73;;
7647;SDS011;3866;48.020;11.720;2022-11-03T06:39:47;13.27;;;9.43;;
7647;SDS011;3866;48.020;11.720;2022-11-03T06:42:18;12.97;;;9.80;;
7647;SDS011;3866;48.020;11.720;2022-11-03T06:44:47;10.27;;;9.17;;
7647;SDS011;3866;48.020;11.720;2022-11-03T06:47:19;9.30;;;8.40;;
7647;SDS011;3866;48.020;11.720;2022-11-03T06:49:50;11.73;;;9.17;;
7647;SDS011;3866;48.020;11.720;2022-11-03T06:52:25;10.70;;;8.10;;
7647;SDS011;3866;48.020;11.720;2022-11-03T06:57:57;9.87;;;7.93;;
7647;SDS011;3866;48.020;11.720;2022-11-03T07:00:27;9.53;;;8.07;;
7647;SDS011;3866;48.020;11.720;2022-11-03T07:02:59;8.67;;;7.77;;
7647;SDS011;3866;48.020;11.720;2022-11-03T07:05:33;7.87;;;7.07;;
7647;SDS011;3866;48.020;11.720;2022-11-03T07:08:01;8.00;;;7.20;;
7647;SDS011;3866;48.020;11.720;2022-11-03T07:10:36;7.43;;;6.70;;
7647;SDS011;3866;48.020;11.720;2022-11-03T07:13:05;6.73;;;6.03;;
7647;SDS011;3866;48.020;11.720;2022-11-03T07:15:38;5.50;;;5.00;;
7647;SDS011;3866;48.020;11.720;2022-11-03T07:18:12;4.20;;;3.90;;
7647;SDS011;3866;48.020;11.720;2022-11-03T07:20:47;4.10;;;3.80;;
7647;SDS011;3866;48.020;11.720;2022-11-03T07:23:16;3.60;;;3.30;;
7647;SDS011;3866;48.020;11.720;2022-11-03T07:25:45;3.37;;;3.17;;
7647;SDS011;3866;48.020;11.720;2022-11-03T07:28:17;3.80;;;3.50;;
7647;SDS011;3866;48.020;11.720;2022-11-03T07:30:44;3.57;;;3.37;;
7647;SDS011;3866;48.020;11.720;2022-11-03T07:33:15;4.10;;;3.67;;
7647;SDS011;3866;48.020;11.720;2022-11-03T07:35:45;3.00;;;2.80;;
7647;SDS011;3866;48.020;11.720;2022-11-03T07:38:14;2.47;;;2.37;;
7647;SDS011;3866;48.020;11.720;2022-11-03T07:40:45;2.70;;;2.60;;
7647;SDS011;3866;48.020;11.720;2022-11-03T07:43:13;2.70;;;2.50;;
7647;SDS011;3866;48.020;11.720;2022-11-03T07:45:43;2.17;;;2.07;;
7647;SDS011;3866;48.020;11.720;2022-11-03T07:48:18;2.00;;;1.90;;
7647;SDS011;3866;48.020;11.720;2022-11-03T07:50:50;2.50;;;2.33;;
7647;SDS011;3866;48.020;11.720;2022-11-03T07:53:24;2.83;;;2.50;;
7647;SDS011;3866;48.020;11.720;2022-11-03T07:55:58;2.93;;;2.57;;
7647;SDS011;3866;48.020;11.720;2022-11-03T07:58:28;2.10;;;2.00;;
7647;SDS011;3866;48.020;11.720;2022-11-03T08:01:00;2.80;;;2.60;;
7647;SDS011;3866;48.020;11.720;2022-11-03T08:03:41;2.97;;;2.27;;
7647;SDS011;3866;48.020;11.720;2022-11-03T08:06:10;2.10;;;2.00;;
7647;SDS011;3866;48.020;11.720;2022-11-03T08:08:39;2.87;;;2.07;;
7647;SDS011;3866;48.020;11.720;2022-11-03T08:11:08;1.80;;;1.70;;
7647;SDS011;3866;48.020;11.720;2022-11-03T08:13:35;2.23;;;2.13;;
7647;SDS011;3866;48.020;11.720;2022-11-03T08:16:02;2.20;;;2.10;;
7647;SDS011;3866;48.020;11.720;2022-11-03T08:18:29;1.83;;;1.63;;
7647;SDS011;3866;48.020;11.720;2022-11-03T08:20:57;1.80;;;1.70;;
7647;SDS011;3866;48.020;11.720;2022-11-03T08:23:24;1.90;;;1.80;;
7647;SDS011;3866;48.020;11.720;2022-11-03T08:25:52;1.80;;;1.70;;
7647;SDS011;3866;48.020;11.720;2022-11-03T08:28:21;2.87;;;1.97;;
7647;SDS011;3866;48.020;11.720;2022-11-03T08:30:49;2.30;;;1.80;;
7647;SDS011;3866;48.020;11.720;2022-11-03T08:33:18;1.87;;;1.77;;
7647;SDS011;3866;48.020;11.720;2022-11-03T08:35:46;2.80;;;2.20;;
7647;SDS011;3866;48.020;11.720;2022-11-03T08:38:16;2.33;;;2.20;;
7647;SDS011;3866;48.020;11.720;2022-11-03T08:40:44;3.97;;;1.93;;
7647;SDS011;3866;48.020;11.720;2022-11-03T08:43:11;2.30;;;2.10;;
7647;SDS011;3866;48.020;11.720;2022-11-03T08:45:39;1.90;;;1.80;;
7647;SDS011;3866;48.020;11.720;2022-11-03T08:48:07;2.40;;;2.20;;
7647;SDS011;3866;48.020;11.720;2022-11-03T08:50:35;3.30;;;2.60;;
7647;SDS011;3866;48.020;11.720;2022-11-03T08:53:03;3.47;;;2.43;;
7647;SDS011;3866;48.020;11.720;2022-11-03T08:55:31;2.83;;;2.63;;
7647;SDS011;3866;48.020;11.720;2022-11-03T08:58:00;3.50;;;2.47;;
7647;SDS011;3866;48.020;11.720;2022-11-03T09:00:28;3.73;;;2.70;;
7647;SDS011;3866;48.020;11.720;2022-11-03T09:02:56;3.30;;;2.37;;
7647;SDS011;3866;48.020;11.720;2022-11-03T09:05:24;2.70;;;2.43;;
7647;SDS011;3866;48.020;11.720;2022-11-03T09:07:51;2.10;;;2.00;;
7647;SDS011;3866;48.020;11.720;2022-11-03T09:10:19;3.83;;;2.33;;
7647;SDS011;3866;48.020;11.720;2022-11-03T09:12:48;5.30;;;2.73;;
7647;SDS011;3866;48.020;11.720;2022-11-03T09:15:16;4.13;;;2.30;;
7647;SDS011;3866;48.020;11.720;2022-11-03T09:17:45;4.30;;;2.80;;
7647;SDS011;3866;48.020;11.720;2022-11-03T09:20:13;2.17;;;2.00;;
7647;SDS011;3866;48.020;11.720;2022-11-03T09:22:40;3.47;;;2.30;;
7647;SDS011;3866;48.020;11.720;2022-11-03T09:25:08;3.93;;;2.40;;
7647;SDS011;3866;48.020;11.720;2022-11-03T09:27:36;4.33;;;2.23;;
7647;SDS011;3866;48.020;11.720;2022-11-03T09:30:06;2.90;;;2.70;;
7647;SDS011;3866;48.020;11.720;2022-11-03T09:32:34;2.67;;;2.40;;
7647;SDS011;3866;48.020;11.720;2022-11-03T09:35:01;4.93;;;2.53;;
7647;SDS011;3866;48.020;11.720;2022-11-03T09:37:30;3.37;;;2.90;;
7647;SDS011;3866;48.020;11.720;2022-11-03T09:39:58;2.80;;;2.50;;
7647;SDS011;3866;48.020;11.720;2022-11-03T09:42:30;3.40;;;2.70;;
7647;SDS011;3866;48.020;11.720;2022-11-03T09:44:59;4.07;;;2.67;;
7647;SDS011;3866;48.020;11.720;2022-11-03T09:47:31;2.40;;;2.30;;
7647;SDS011;3866;48.020;11.720;2022-11-03T09:50:00;3.43;;;3.10;;
7647;SDS011;3866;48.020;11.720;2022-11-03T09:52:29;3.33;;;2.70;;
7647;SDS011;3866;48.020;11.720;2022-11-03T09:54:58;2.83;;;2.63;;
7647;SDS011;3866;48.020;11.720;2022-11-03T09:57:26;3.03;;;2.83;;
7647;SDS011;3866;48.020;11.720;2022-11-03T09:59:54;3.67;;;2.77;;
7647;SDS011;3866;48.020;11.720;2022-11-03T10:02:23;2.63;;;2.43;;
7647;SDS011;3866;48.020;11.720;2022-11-03T10:04:55;3.20;;;2.63;;
7647;SDS011;3866;48.020;11.720;2022-11-03T10:07:25;3.33;;;3.03;;
7647;SDS011;3866;48.020;11.720;2022-11-03T10:09:55;3.17;;;2.97;;
7647;SDS011;3866;48.020;11.720;2022-11-03T10:12:24;4.77;;;2.90;;
7647;SDS011;3866;48.020;11.720;2022-11-03T10:14:55;3.80;;;2.40;;
7647;SDS011;3866;48.020;11.720;2022-11-03T10:17:24;2.93;;;2.47;;
7647;SDS011;3866;48.020;11.720;2022-11-03T10:19:57;2.90;;;2.63;;
7647;SDS011;3866;48.020;11.720;2022-11-03T10:22:25;3.97;;;3.00;;
7647;SDS011;3866;48.020;11.720;2022-11-03T10:30:46;3.83;;;2.97;;
7647;SDS011;3866;48.020;11.720;2022-11-03T10:33:24;3.43;;;3.13;;
7647;SDS011;3866;48.020;11.720;2022-11-03T10:35:56;3.43;;;3.00;;
7647;SDS011;3866;48.020;11.720;2022-11-03T10:38:25;3.17;;;2.97;;
7647;SDS011;3866;48.020;11.720;2022-11-03T10:40:56;3.33;;;3.07;;
7647;SDS011;3866;48.020;11.720;2022-11-03T10:43:36;3.33;;;2.97;;
7647;SDS011;3866;48.020;11.720;2022-11-03T10:46:15;4.70;;;3.17;;
7647;SDS011;3866;48.020;11.720;2022-11-03T10:48:48;5.40;;;3.20;;
7647;SDS011;3866;48.020;11.720;2022-11-03T10:51:30;3.47;;;3.17;;
7647;SDS011;3866;48.020;11.720;2022-11-03T10:54:00;5.20;;;3.10;;
7647;SDS011;3866;48.020;11.720;2022-11-03T10:56:29;3.63;;;3.03;;
7647;SDS011;3866;48.020;11.720;2022-11-03T10:58:58;2.70;;;2.40;;
7647;SDS011;3866;48.020;11.720;2022-11-03T11:01:27;3.13;;;2.87;;
7647;SDS011;3866;48.020;11.720;2022-11-03T11:03:56;3.67;;;2.40;;
7647;SDS011;3866;48.020;11.720;2022-11-03T11:06:25;4.60;;;2.83;;
7647;SDS011;3866;48.020;11.720;2022-11-03T11:09:00;3.93;;;2.30;;
7647;SDS011;3866;48.020;11.720;2022-11-03T11:11:30;3.00;;;2.30;;
7647;SDS011;3866;48.020;11.720;2022-11-03T11:16:49;4.23;;;1.77;;
7647;SDS011;3866;48.020;11.720;2022-11-03T11:19:18;3.63;;;2.33;;
7647;SDS011;3866;48.020;11.720;2022-11-03T11:21:59;1.97;;;1.80;;
7647;SDS011;3866;48.020;11.720;2022-11-03T11:33:23;1.53;;;1.43;;
7647;SDS011;3866;48.020;11.720;2022-11-03T11:38:57;2.60;;;1.57;;
7647;SDS011;3866;48.020;11.720;2022-11-03T11:47:23;3.23;;;1.70;;
7647;SDS011;3866;48.020;11.720;2022-11-03T11:52:56;2.33;;;2.07;;
7647;SDS011;3866;48.020;11.720;2022-11-03T11:55:37;2.27;;;1.90;;
7647;SDS011;3866;48.020;11.720;2022-11-03T11:58:14;2.97;;;1.90;;
7647;SDS011;3866;48.020;11.720;2022-11-03T12:00:56;4.93;;;2.40;;
7647;SDS011;3866;48.020;11.720;2022-11-03T12:03:27;3.33;;;2.17;;
7647;SDS011;3866;48.020;11.720;2022-11-03T12:06:05;4.20;;;2.60;;
7647;SDS011;3866;48.020;11.720;2022-11-03T12:08:33;3.03;;;2.63;;
7647;SDS011;3866;48.020;11.720;2022-11-03T12:11:04;3.30;;;2.43;;
7647;SDS011;3866;48.020;11.720;2022-11-03T12:13:45;3.33;;;2.53;;
7647;SDS011;3866;48.020;11.720;2022-11-03T12:16:31;6.80;;;3.67;;
7647;SDS011;3866;48.020;11.720;2022-11-03T12:22:02;3.27;;;2.97;;
7647;SDS011;3866;48.020;11.720;2022-11-03T12:27:40;5.17;;;3.50;;
7647;SDS011;3866;48.020;11.720;2022-11-03T12:30:14;3.53;;;3.23;;
7647;SDS011;3866;48.020;11.720;2022-11-03T12:32:45;2.80;;;2.60;;
7647;SDS011;3866;48.020;11.720;2022-11-03T12:35:14;5.30;;;3.57;;
7647;SDS011;3866;48.020;11.720;2022-11-03T12:37:41;6.20;;;3.50;;
7647;SDS011;3866;48.020;11.720;2022-11-03T12:40:11;3.57;;;3.23;;
7647;SDS011;3866;48.020;11.720;2022-11-03T12:42:41;6.23;;;4.10;;
7647;SDS011;3866;48.020;11.720;2022-11-03T12:45:09;5.97;;;3.93;;
7647;SDS011;3866;48.020;11.720;2022-11-03T12:47:41;4.90;;;3.07;;
7647;SDS011;3866;48.020;11.720;2022-11-03T12:50:10;5.50;;;3.60;;
7647;SDS011;3866;48.020;11.720;2022-11-03T12:52:38;6.73;;;3.57;;
7647;SDS011;3866;48.020;11.720;2022-11-03T12:55:07;3.63;;;3.30;;
7647;SDS011;3866;48.020;11.720;2022-11-03T12:57:35;4.13;;;3.70;;
7647;SDS011;3866;48.020;11.720;2022-11-03T13:00:04;5.23;;;3.60;;
7647;SDS011;3866;48.020;11.720;2022-11-03T13:02:33;5.87;;;3.50;;
7647;SDS011;3866;48.020;11.720;2022-11-03T13:05:07;6.00;;;3.50;;
7647;SDS011;3866;48.020;11.720;2022-11-03T13:07:40;4.63;;;3.30;;
7647;SDS011;3866;48.020;11.720;2022-11-03T13:10:08;7.37;;;3.87;;
7647;SDS011;3866;48.020;11.720;2022-11-03T13:12:37;7.33;;;3.73;;
7647;SDS011;3866;48.020;11.720;2022-11-03T13:15:07;4.10;;;3.70;;
7647;SDS011;3866;48.020;11.720;2022-11-03T13:17:38;4.40;;;4.00;;
7647;SDS011;3866;48.020;11.720;2022-11-03T13:20:08;10.43;;;7.57;;
7647;SDS011;3866;48.020;11.720;2022-11-03T13:22:39;7.57;;;4.53;;
7647;SDS011;3866;48.020;11.720;2022-11-03T13:25:08;6.43;;;4.30;;
7647;SDS011;3866;48.020;11.720;2022-11-03T13:27:36;5.03;;;4.20;;
7647;SDS011;3866;48.020;11.720;2022-11-03T13:30:05;5.37;;;4.00;;
7647;SDS011;3866;48.020;11.720;2022-11-03T13:32:34;7.47;;;4.40;;
7647;SDS011;3866;48.020;11.720;2022-11-03T13:35:02;6.57;;;3.90;;
7647;SDS011;3866;48.020;11.720;2022-11-03T13:37:32;6.13;;;3.93;;
7647;SDS011;3866;48.020;11.720;2022-11-03T13:40:00;4.43;;;4.03;;
7647;SDS011;3866;48.020;11.720;2022-11-03T13:42:28;4.90;;;3.90;;
7647;SDS011;3866;48.020;11.720;2022-11-03T13:44:55;4.47;;;4.07;;
7647;SDS011;3866;48.020;11.720;2022-11-03T13:47:22;5.60;;;4.23;;
7647;SDS011;3866;48.020;11.720;2022-11-03T13:49:50;6.77;;;4.40;;
7647;SDS011;3866;48.020;11.720;2022-11-03T13:52:19;5.10;;;4.60;;
7647;SDS011;3866;48.020;11.720;2022-11-03T13:54:48;5.33;;;4.50;;
7647;SDS011;3866;48.020;11.720;2022-11-03T13:57:16;8.27;;;5.37;;
7647;SDS011;3866;48.020;11.720;2022-11-03T13:59:43;6.77;;;4.63;;
7647;SDS011;3866;48.020;11.720;2022-11-03T14:02:12;6.60;;;5.00;;
7647;SDS011;3866;48.020;11.720;2022-11-03T14:04:40;7.87;;;5.40;;
7647;SDS011;3866;48.020;11.720;2022-11-03T14:07:07;7.10;;;5.40;;
7647;SDS011;3866;48.020;11.720;2022-11-03T14:09:35;6.20;;;5.63;;
7647;SDS011;3866;48.020;11.720;2022-11-03T14:12:05;7.60;;;5.97;;
7647;SDS011;3866;48.020;11.720;2022-11-03T14:14:51;8.97;;;6.83;;
7647;SDS011;3866;48.020;11.720;2022-11-03T14:17:19;7.53;;;6.43;;
7647;SDS011;3866;48.020;11.720;2022-11-03T14:19:47;9.80;;;6.90;;
7647;SDS011;3866;48.020;11.720;2022-11-03T14:22:15;7.63;;;6.67;;
7647;SDS011;3866;48.020;11.720;2022-11-03T14:24:42;7.87;;;6.77;;
7647;SDS011;3866;48.020;11.720;2022-11-03T14:27:12;10.17;;;7.10;;
7647;SDS011;3866;48.020;11.720;2022-11-03T14:29:41;8.43;;;7.00;;
7647;SDS011;3866;48.020;11.720;2022-11-03T14:32:09;9.10;;;7.40;;
7647;SDS011;3866;48.020;11.720;2022-11-03T14:34:37;8.80;;;7.23;;
7647;SDS011;3866;48.020;11.720;2022-11-03T14:37:06;7.63;;;6.67;;
7647;SDS011;3866;48.020;11.720;2022-11-03T14:39:34;7.93;;;7.13;;
7647;SDS011;3866;48.020;11.720;2022-11-03T14:42:02;10.97;;;7.57;;
7647;SDS011;3866;48.020;11.720;2022-11-03T14:44:31;9.10;;;7.00;;
7647;SDS011;3866;48.020;11.720;2022-11-03T14:47:01;11.53;;;9.93;;
7647;SDS011;3866;48.020;11.720;2022-11-03T14:49:30;12.30;;;8.90;;
7647;SDS011;3866;48.020;11.720;2022-11-03T14:51:59;9.77;;;7.27;;
7647;SDS011;3866;48.020;11.720;2022-11-03T14:54:29;9.67;;;7.20;;
7647;SDS011;3866;48.020;11.720;2022-11-03T14:56:57;8.37;;;7.10;;
7647;SDS011;3866;48.020;11.720;2022-11-03T14:59:24;9.20;;;7.37;;
7647;SDS011;3866;48.020;11.720;2022-11-03T15:01:58;9.20;;;7.87;;
7647;SDS011;3866;48.020;11.720;2022-11-03T15:04:27;11.27;;;7.50;;
7647;SDS011;3866;48.020;11.720;2022-11-03T15:06:55;11.50;;;7.53;;
7647;SDS011;3866;48.020;11.720;2022-11-03T15:09:23;15.93;;;12.53;;
7647;SDS011;3866;48.020;11.720;2022-11-03T15:11:51;16.53;;;11.47;;
7647;SDS011;3866;48.020;11.720;2022-11-03T15:14:20;9.37;;;7.43;;
7647;SDS011;3866;48.020;11.720;2022-11-03T15:16:48;10.43;;;8.17;;
7647;SDS011;3866;48.020;11.720;2022-11-03T15:19:17;28.23;;;16.40;;
7647;SDS011;3866;48.020;11.720;2022-11-03T15:21:45;16.80;;;12.30;;
7647;SDS011;3866;48.020;11.720;2022-11-03T15:24:12;13.80;;;10.20;;
7647;SDS011;3866;48.020;11.720;2022-11-03T15:26:39;13.83;;;8.97;;
7647;SDS011;3866;48.020;11.720;2022-11-03T15:29:07;9.30;;;7.27;;
7647;SDS011;3866;48.020;11.720;2022-11-03T15:31:35;11.90;;;7.80;;
7647;SDS011;3866;48.020;11.720;2022-11-03T15:34:03;11.90;;;7.57;;
7647;SDS011;3866;48.020;11.720;2022-11-03T15:36:35;13.33;;;10.93;;
7647;SDS011;3866;48.020;11.720;2022-11-03T15:39:03;11.10;;;7.83;;
7647;SDS011;3866;48.020;11.720;2022-11-03T15:41:31;10.43;;;7.57;;
7647;SDS011;3866;48.020;11.720;2022-11-03T15:43:58;9.07;;;7.17;;
7647;SDS011;3866;48.020;11.720;2022-11-03T15:46:25;8.37;;;7.33;;
7647;SDS011;3866;48.020;11.720;2022-11-03T15:48:52;7.70;;;6.90;;
7647;SDS011;3866;48.020;11.720;2022-11-03T15:51:21;7.90;;;7.20;;
7647;SDS011;3866;48.020;11.720;2022-11-03T15:53:49;9.37;;;7.97;;
7647;SDS011;3866;48.020;11.720;2022-11-03T15:56:16;11.30;;;7.63;;